Time;durP1;ratioP1;P1;durP2;ratioP2;P2;SDS_P1;SDS_P2;PMS_P1;PMS_P2;Temp;Humidity;BMP_temperature;BMP_pressure;BME280_temperature;BME280_humidity;BME280_pressure;Samples;Min_cycle;Max_cycle;Signal;HPM_P1;HPM_P2
2023/12/11 00:02:10;;;;;;;3.10;1.30;;;10.10;1.00;;;;;;4989613;28;20953;-75
2023/12/11 00:04:35;;;;;;;4.50;1.53;;;10.10;1.00;;;;;;5000174;28;20191;-76
2023/12/11 00:07:01;;;;;;;1.80;1.30;;;10.10;1.00;;;;;;4991433;28;20234;-74
2023/12/11 00:09:26;;;;;;;4.60;1.57;;;10.10;1.00;;;;;;4997896;28;20306;-74
2023/12/11 00:11:52;;;;;;;4.53;1.10;;;10.10;1.00;;;;;;4991771;28;20712;-76
2023/12/11 00:14:17;;;;;;;1.77;1.10;;;10.00;1.00;;;;;;5001359;28;20237;-74
2023/12/11 00:16:45;;;;;;;3.23;1.40;;;10.10;1.00;;;;;;4996657;28;20237;-74
2023/12/11 00:19:11;;;;;;;3.53;1.10;;;10.10;1.00;;;;;;4990742;28;20532;-74
2023/12/11 00:21:36;;;;;;;2.10;1.13;;;10.10;1.00;;;;;;4998947;28;20430;-76
2023/12/11 00:24:03;;;;;;;1.50;1.20;;;10.10;1.00;;;;;;4994087;28;20187;-75
2023/12/11 00:26:29;;;;;;;2.30;1.10;;;10.10;1.00;;;;;;5002680;28;21065;-74
2023/12/11 00:28:54;;;;;;;2.33;1.20;;;10.20;1.00;;;;;;4997270;28;20492;-74
2023/12/11 00:31:20;;;;;;;1.80;1.17;;;10.10;1.00;;;;;;4993848;28;20215;-74
2023/12/11 00:33:45;;;;;;;2.23;1.20;;;10.10;1.00;;;;;;5005031;28;20682;-75
2023/12/11 00:36:11;;;;;;;3.40;1.10;;;10.10;1.00;;;;;;4998842;28;20187;-72
2023/12/11 00:38:36;;;;;;;3.00;1.20;;;10.10;1.00;;;;;;4989697;28;20549;-75
2023/12/11 00:41:02;;;;;;;3.70;1.33;;;10.10;1.00;;;;;;4991256;28;20215;-74
2023/12/11 00:43:27;;;;;;;1.93;1.17;;;10.20;1.00;;;;;;4998789;28;20214;-75
2023/12/11 00:45:53;;;;;;;1.67;1.10;;;10.20;1.00;;;;;;4990595;28;20190;-74
2023/12/11 00:48:18;;;;;;;1.80;1.20;;;10.20;1.00;;;;;;4990442;28;20191;-75
2023/12/11 00:50:44;;;;;;;5.60;1.30;;;10.20;1.00;;;;;;4994823;28;20669;-74
2023/12/11 00:53:09;;;;;;;2.30;1.20;;;10.20;1.00;;;;;;4992197;28;20590;-76
2023/12/11 00:55:35;;;;;;;1.70;1.20;;;10.10;1.00;;;;;;4997878;28;20190;-75
2023/12/11 00:58:00;;;;;;;1.43;0.93;;;10.20;1.00;;;;;;4988993;28;20191;-75
2023/12/11 01:00:26;;;;;;;1.23;0.90;;;10.10;1.00;;;;;;4989059;28;20195;-76
2023/12/11 01:02:51;;;;;;;2.37;1.00;;;10.20;1.00;;;;;;4996831;28;20194;-75
2023/12/11 01:05:17;;;;;;;2.60;1.20;;;10.20;1.00;;;;;;4990394;28;20610;-74
2023/12/11 01:07:43;;;;;;;3.83;1.00;;;10.20;1.00;;;;;;4990645;28;20186;-75
2023/12/11 01:10:09;;;;;;;1.83;1.03;;;10.20;1.00;;;;;;4996018;28;20237;-77
2023/12/11 01:12:35;;;;;;;2.10;1.20;;;10.10;1.00;;;;;;4999351;28;20238;-74
2023/12/11 01:15:01;;;;;;;3.90;1.27;;;10.10;1.00;;;;;;5005835;28;20494;-75
2023/12/11 01:17:26;;;;;;;3.40;1.20;;;10.10;1.00;;;;;;4986872;28;20517;-75
2023/12/11 01:19:52;;;;;;;1.23;1.00;;;10.10;1.00;;;;;;4987195;28;20286;-74
2023/12/11 01:22:18;;;;;;;1.97;1.10;;;10.10;1.00;;;;;;4995214;28;20199;-75
2023/12/11 01:24:43;;;;;;;1.77;1.13;;;10.10;1.00;;;;;;4990268;28;20187;-74
2023/12/11 01:27:09;;;;;;;1.70;1.00;;;10.10;1.00;;;;;;4993354;28;20192;-76
2023/12/11 01:29:34;;;;;;;2.10;1.27;;;12.40;1.00;;;;;;4988928;28;20219;-75
2023/12/11 01:32:00;;;;;;;2.60;1.10;;;10.30;1.00;;;;;;4992226;28;20210;-74
2023/12/11 01:34:26;;;;;;;2.27;1.20;;;10.40;1.00;;;;;;4987854;28;20182;-75
2023/12/11 01:36:51;;;;;;;1.40;1.00;;;10.50;1.00;;;;;;4989960;28;20189;-75
2023/12/11 01:39:17;;;;;;;1.40;1.00;;;10.60;1.00;;;;;;4987809;28;20739;-73
2023/12/11 01:41:42;;;;;;;2.50;1.10;;;10.60;1.00;;;;;;4996034;28;20187;-75
2023/12/11 01:44:08;;;;;;;2.03;1.20;;;10.60;1.00;;;;;;4990007;28;20183;-74
2023/12/11 01:46:34;;;;;;;1.70;1.07;;;10.60;1.00;;;;;;4990173;28;20198;-75
2023/12/11 01:48:59;;;;;;;2.70;1.40;;;10.60;1.00;;;;;;4989340;28;20266;-74
2023/12/11 01:51:25;;;;;;;1.63;1.00;;;10.60;1.00;;;;;;4989429;28;20246;-75
2023/12/11 01:53:51;;;;;;;3.47;1.20;;;10.70;1.00;;;;;;4994217;28;20261;-78
2023/12/11 01:56:18;;;;;;;1.30;1.03;;;10.70;1.00;;;;;;5001044;28;20596;-75
2023/12/11 01:58:45;;;;;;;6.10;1.00;;;10.70;1.00;;;;;;4998686;28;20512;-75
2023/12/11 02:01:12;;;;;;;3.53;1.10;;;10.70;1.00;;;;;;4993543;28;20500;-74
2023/12/11 02:03:38;;;;;;;2.23;1.20;;;10.70;1.00;;;;;;4995131;28;21167;-72
2023/12/11 02:06:04;;;;;;;2.10;1.10;;;10.70;1.00;;;;;;4996301;28;20425;-75
2023/12/11 02:08:29;;;;;;;3.67;1.30;;;10.70;1.00;;;;;;4994686;28;20469;-74
2023/12/11 02:10:55;;;;;;;4.40;1.20;;;10.60;1.00;;;;;;5013941;28;20203;-75
2023/12/11 02:13:21;;;;;;;1.50;1.00;;;10.60;1.00;;;;;;4999323;28;20182;-73
2023/12/11 02:15:47;;;;;;;1.50;1.10;;;10.60;1.00;;;;;;5000927;28;20179;-75
2023/12/11 02:18:14;;;;;;;1.73;0.87;;;10.70;1.00;;;;;;4989120;28;20218;-74
2023/12/11 02:20:41;;;;;;;4.27;1.10;;;10.70;1.00;;;;;;4996553;28;20441;-76
2023/12/11 02:23:29;;;;;;;2.13;0.97;;;10.80;1.00;;;;;;4992710;28;20422;-74
2023/12/11 02:26:21;;;;;;;1.73;1.00;;;10.80;1.00;;;;;;4999877;28;20425;-75
2023/12/11 02:28:47;;;;;;;3.47;1.47;;;10.70;1.00;;;;;;4984646;28;20426;-74
2023/12/11 02:31:13;;;;;;;1.93;1.13;;;10.70;1.00;;;;;;4997159;28;20836;-75
2023/12/11 02:33:39;;;;;;;1.50;1.00;;;10.60;1.00;;;;;;4991346;28;20661;-74
2023/12/11 02:36:05;;;;;;;1.30;1.07;;;10.50;1.00;;;;;;4994648;28;20433;-76
2023/12/11 02:38:31;;;;;;;2.40;1.20;;;10.50;1.00;;;;;;4996927;28;20720;-76
2023/12/11 02:40:56;;;;;;;5.43;1.63;;;10.40;1.00;;;;;;4988782;28;20457;-75
2023/12/11 02:43:22;;;;;;;2.83;1.20;;;10.50;1.00;;;;;;4991843;28;20203;-72
2023/12/11 02:45:47;;;;;;;2.67;1.10;;;10.50;1.00;;;;;;4996971;28;20183;-74
2023/12/11 02:48:14;;;;;;;1.23;1.07;;;10.50;1.00;;;;;;4987707;28;20175;-74
2023/12/11 02:50:39;;;;;;;1.30;0.80;;;10.70;1.00;;;;;;4988438;28;20202;-76
2023/12/11 02:53:05;;;;;;;2.70;1.10;;;10.60;1.00;;;;;;4989105;28;20527;-74
2023/12/11 02:55:30;;;;;;;4.87;1.20;;;10.60;1.00;;;;;;4994780;28;20190;-74
2023/12/11 02:58:00;;;;;;;1.40;1.10;;;10.60;1.00;;;;;;4988814;28;20270;-75
2023/12/11 03:00:27;;;;;;;2.53;1.20;;;10.60;1.00;;;;;;4988495;28;20282;-74
2023/12/11 03:02:53;;;;;;;3.33;1.10;;;10.70;1.00;;;;;;4998488;28;20448;-74
2023/12/11 03:05:19;;;;;;;1.27;1.00;;;10.70;1.00;;;;;;5007526;28;20436;-75
2023/12/11 03:07:44;;;;;;;1.93;1.20;;;10.70;1.00;;;;;;5007653;28;20426;-74
2023/12/11 03:10:10;;;;;;;7.70;1.00;;;10.70;1.00;;;;;;4995628;28;20229;-74
2023/12/11 03:12:36;;;;;;;1.27;0.90;;;10.70;1.00;;;;;;5005088;28;20226;-74
2023/12/11 03:15:03;;;;;;;1.73;1.20;;;10.40;1.00;;;;;;5002248;28;20245;-74
2023/12/11 03:17:29;;;;;;;8.80;1.10;;;10.60;1.00;;;;;;4992498;28;20187;-74
2023/12/11 03:19:54;;;;;;;1.73;1.10;;;10.60;1.00;;;;;;4989714;28;20569;-74
2023/12/11 03:22:20;;;;;;;3.93;1.60;;;10.60;1.00;;;;;;5001107;28;20502;-74
2023/12/11 03:24:46;;;;;;;1.20;0.90;;;10.60;1.00;;;;;;4999492;28;20217;-75
2023/12/11 03:27:12;;;;;;;2.20;0.93;;;10.60;1.00;;;;;;4989207;28;20183;-75
2023/12/11 03:29:38;;;;;;;1.50;1.00;;;10.60;1.00;;;;;;4996821;28;20457;-75
2023/12/11 03:32:03;;;;;;;2.53;1.10;;;10.70;1.00;;;;;;4993304;28;20199;-76
2023/12/11 03:34:29;;;;;;;1.27;1.00;;;10.70;1.00;;;;;;5000526;28;20185;-73
2023/12/11 03:36:54;;;;;;;2.50;1.13;;;10.70;1.00;;;;;;4990399;28;20551;-73
2023/12/11 03:39:20;;;;;;;2.13;1.10;;;10.70;1.00;;;;;;5000163;28;20207;-75
2023/12/11 03:41:47;;;;;;;1.30;0.80;;;10.60;1.00;;;;;;5002311;28;20697;-74
2023/12/11 03:44:13;;;;;;;2.23;1.13;;;10.50;1.00;;;;;;5002675;28;20426;-74
2023/12/11 03:46:38;;;;;;;2.23;1.03;;;10.40;1.00;;;;;;5000440;28;20430;-75
2023/12/11 03:49:04;;;;;;;1.77;1.00;;;10.40;1.00;;;;;;4991993;28;20586;-76
2023/12/11 03:51:29;;;;;;;2.07;1.00;;;10.40;1.00;;;;;;4993151;28;20321;-72
2023/12/11 03:53:56;;;;;;;3.00;1.27;;;10.40;1.00;;;;;;4995504;28;20213;-74
2023/12/11 03:56:21;;;;;;;1.60;1.00;;;10.40;1.00;;;;;;5006515;28;20176;-74
2023/12/11 03:58:47;;;;;;;1.20;0.97;;;10.40;1.00;;;;;;5002218;28;20513;-74
2023/12/11 04:01:12;;;;;;;1.27;1.00;;;10.50;1.00;;;;;;4999243;28;20234;-78
2023/12/11 04:03:38;;;;;;;2.90;1.17;;;10.50;1.00;;;;;;4994044;28;20720;-74
2023/12/11 04:06:03;;;;;;;1.70;1.10;;;10.60;1.00;;;;;;4998972;28;20187;-75
2023/12/11 04:08:30;;;;;;;1.97;0.80;;;10.70;1.00;;;;;;4999480;28;20561;-73
2023/12/11 04:10:56;;;;;;;1.40;1.10;;;12.00;1.00;;;;;;4994309;28;20576;-74
2023/12/11 04:13:21;;;;;;;2.20;1.10;;;10.80;1.00;;;;;;5005689;28;20421;-75
2023/12/11 04:15:47;;;;;;;2.80;0.83;;;10.90;1.00;;;;;;4997333;28;20187;-76
2023/12/11 04:18:12;;;;;;;2.13;1.10;;;10.90;1.00;;;;;;4997189;28;20786;-74
2023/12/11 04:20:38;;;;;;;1.50;0.97;;;10.90;1.00;;;;;;4992771;28;20199;-75
2023/12/11 04:23:03;;;;;;;1.40;0.90;;;10.90;1.00;;;;;;5002195;28;20185;-77
2023/12/11 04:25:29;;;;;;;2.60;0.90;;;10.90;1.00;;;;;;4998272;28;20201;-74
2023/12/11 04:27:54;;;;;;;1.50;1.00;;;11.00;1.00;;;;;;4995098;28;20729;-75
2023/12/11 04:30:19;;;;;;;1.43;0.77;;;11.00;1.00;;;;;;4994572;28;20202;-76
2023/12/11 04:32:45;;;;;;;2.40;1.00;;;11.00;1.00;;;;;;4999005;28;20329;-75
2023/12/11 04:35:10;;;;;;;1.80;0.97;;;11.00;1.00;;;;;;4991417;28;20183;-74
2023/12/11 04:37:36;;;;;;;1.00;0.80;;;11.00;1.00;;;;;;4991530;28;20241;-76
2023/12/11 04:40:03;;;;;;;1.20;0.90;;;11.00;1.00;;;;;;5008765;28;20217;-75
2023/12/11 04:42:28;;;;;;;1.10;0.70;;;11.00;1.00;;;;;;5000961;28;20206;-77
2023/12/11 04:44:54;;;;;;;1.67;1.00;;;11.10;1.00;;;;;;4997036;28;20872;-74
2023/12/11 04:47:20;;;;;;;1.30;0.90;;;11.10;1.00;;;;;;4991326;28;20613;-75
2023/12/11 04:49:45;;;;;;;2.13;0.97;;;11.10;1.00;;;;;;4989112;28;20211;-74
2023/12/11 04:52:11;;;;;;;1.30;0.90;;;11.10;1.00;;;;;;4997439;28;20676;-76
2023/12/11 04:54:36;;;;;;;4.90;0.80;;;11.20;1.00;;;;;;5001890;28;20187;-74
2023/12/11 04:57:02;;;;;;;1.47;0.90;;;11.20;1.00;;;;;;4994367;28;20204;-74
2023/12/11 04:59:27;;;;;;;1.00;0.80;;;11.10;1.00;;;;;;5005397;28;20206;-74
2023/12/11 05:01:53;;;;;;;1.63;1.00;;;11.20;1.00;;;;;;4997205;28;20244;-74
2023/12/11 05:04:19;;;;;;;2.03;0.90;;;11.20;1.00;;;;;;4990572;28;20187;-74
2023/12/11 05:06:44;;;;;;;1.20;0.80;;;11.20;1.00;;;;;;4991667;28;20453;-75
2023/12/11 05:09:10;;;;;;;1.53;0.80;;;11.20;1.00;;;;;;5004100;28;20193;-74
2023/12/11 05:11:36;;;;;;;1.20;0.80;;;11.20;1.00;;;;;;5009666;28;20312;-72
2023/12/11 05:14:01;;;;;;;1.20;0.80;;;11.20;1.00;;;;;;5010379;28;20902;-73
2023/12/11 05:16:27;;;;;;;1.67;0.83;;;11.20;1.00;;;;;;5001493;28;20183;-77
2023/12/11 05:18:52;;;;;;;1.10;0.80;;;11.20;1.00;;;;;;4989881;28;20230;-74
2023/12/11 05:21:18;;;;;;;1.30;0.90;;;11.20;1.00;;;;;;4995665;28;20209;-74
2023/12/11 05:23:43;;;;;;;1.00;0.80;;;11.20;1.00;;;;;;5000524;28;20186;-75
2023/12/11 05:26:09;;;;;;;1.77;1.13;;;11.20;1.00;;;;;;4985461;28;20250;-74
2023/12/11 05:28:34;;;;;;;1.20;1.10;;;11.10;1.00;;;;;;4985991;28;20198;-75
2023/12/11 05:31:00;;;;;;;4.97;1.33;;;11.10;1.00;;;;;;4989942;28;20256;-75
2023/12/11 05:33:25;;;;;;;1.10;0.97;;;11.00;1.00;;;;;;4992623;28;20218;-75
2023/12/11 05:35:51;;;;;;;1.10;0.90;;;10.90;1.00;;;;;;5003227;28;20190;-76
2023/12/11 05:38:16;;;;;;;1.50;1.10;;;10.90;1.00;;;;;;5002613;28;20261;-74
2023/12/11 05:40:42;;;;;;;1.37;1.00;;;10.90;1.00;;;;;;5000649;28;20260;-75
2023/12/11 05:43:07;;;;;;;3.20;1.30;;;10.90;1.00;;;;;;4988702;28;20266;-74
2023/12/11 05:45:33;;;;;;;1.87;1.17;;;11.00;1.00;;;;;;4997810;28;20194;-74
2023/12/11 05:47:58;;;;;;;1.20;1.03;;;11.10;1.00;;;;;;4992482;28;20250;-75
2023/12/11 05:50:23;;;;;;;2.70;1.10;;;11.10;1.00;;;;;;4989932;28;20207;-75
2023/12/11 05:52:49;;;;;;;1.47;1.10;;;11.20;1.00;;;;;;4993519;28;20246;-74
2023/12/11 05:55:14;;;;;;;2.47;1.40;;;11.20;1.00;;;;;;4993575;28;20191;-74
2023/12/11 05:57:40;;;;;;;1.30;1.00;;;11.30;1.00;;;;;;4989607;28;20191;-73
2023/12/11 06:00:06;;;;;;;3.50;1.10;;;11.20;1.00;;;;;;5005169;28;20230;-74
2023/12/11 06:02:32;;;;;;;2.10;1.33;;;11.20;1.00;;;;;;4991770;28;20697;-76
2023/12/11 06:04:57;;;;;;;2.13;1.10;;;11.10;1.00;;;;;;4988541;28;20602;-73
2023/12/11 06:07:23;;;;;;;1.50;1.10;;;11.20;1.00;;;;;;5003707;28;20194;-73
2023/12/11 06:09:49;;;;;;;1.80;1.20;;;11.20;1.00;;;;;;4999669;28;20257;-75
2023/12/11 06:12:15;;;;;;;2.13;1.23;;;11.20;1.00;;;;;;4996267;28;20509;-76
2023/12/11 06:14:41;;;;;;;2.17;1.27;;;11.20;1.00;;;;;;4995689;28;20186;-74
2023/12/11 06:17:07;;;;;;;3.30;1.20;;;11.30;1.00;;;;;;4990497;28;20799;-75
2023/12/11 06:19:33;;;;;;;1.53;1.10;;;11.40;1.00;;;;;;4991745;28;20449;-74
2023/12/11 06:21:58;;;;;;;1.30;1.10;;;11.50;1.00;;;;;;4996781;28;20186;-74
2023/12/11 06:24:24;;;;;;;6.50;1.20;;;11.50;1.00;;;;;;4989756;28;20179;-74
2023/12/11 06:26:49;;;;;;;8.93;1.27;;;11.60;1.00;;;;;;4997435;28;20183;-74
2023/12/11 06:29:15;;;;;;;6.10;1.20;;;11.70;1.00;;;;;;4996589;28;20215;-74
2023/12/11 06:31:40;;;;;;;2.10;1.10;;;11.60;1.00;;;;;;4989283;28;20258;-74
2023/12/11 06:34:06;;;;;;;1.40;1.30;;;11.70;1.00;;;;;;5000245;28;20179;-74
2023/12/11 06:36:31;;;;;;;1.87;1.40;;;11.70;1.00;;;;;;4995683;28;20179;-77
2023/12/11 06:38:57;;;;;;;2.37;1.40;;;11.80;1.00;;;;;;4988939;28;21766;-73
2023/12/11 06:41:22;;;;;;;2.20;1.03;;;11.80;1.00;;;;;;4996474;28;20213;-74
2023/12/11 06:43:52;;;;;;;1.50;1.10;;;11.90;1.00;;;;;;5000702;28;20246;-75
2023/12/11 06:46:18;;;;;;;2.13;1.13;;;11.90;1.00;;;;;;5001315;28;20612;-75
2023/12/11 06:48:43;;;;;;;1.60;1.23;;;12.00;1.00;;;;;;4991439;28;20492;-75
2023/12/11 06:51:09;;;;;;;3.60;1.30;;;12.00;1.00;;;;;;5001345;28;20210;-74
2023/12/11 06:53:34;;;;;;;2.00;1.10;;;12.00;1.00;;;;;;4994398;28;20270;-76
2023/12/11 06:56:00;;;;;;;2.33;1.20;;;12.00;1.00;;;;;;4988097;28;20191;-74
2023/12/11 06:58:25;;;;;;;3.27;1.27;;;9.90;1.00;;;;;;4999061;28;20270;-74
2023/12/11 07:00:51;;;;;;;1.67;1.17;;;12.00;1.00;;;;;;5000524;28;20203;-74
2023/12/11 07:03:17;;;;;;;1.87;0.90;;;12.00;1.00;;;;;;4997887;28;20242;-74
2023/12/11 07:05:43;;;;;;;1.20;1.00;;;12.00;1.00;;;;;;4997060;28;20810;-75
2023/12/11 07:08:09;;;;;;;2.70;1.00;;;12.00;1.00;;;;;;4995069;28;20431;-76
2023/12/11 07:10:35;;;;;;;2.30;0.90;;;12.00;1.00;;;;;;4998073;28;20473;-74
2023/12/11 07:13:00;;;;;;;2.13;1.10;;;12.00;1.00;;;;;;5002298;28;20580;-73
2023/12/11 07:15:26;;;;;;;4.70;1.17;;;11.90;1.00;;;;;;4999572;28;20210;-74
2023/12/11 07:17:51;;;;;;;2.70;1.20;;;11.90;1.00;;;;;;4991931;28;20187;-76
2023/12/11 07:20:17;;;;;;;1.80;1.13;;;11.90;1.00;;;;;;4996499;28;20213;-75
2023/12/11 07:22:44;;;;;;;1.27;1.10;;;11.90;1.00;;;;;;4996512;28;20257;-75
2023/12/11 07:25:12;;;;;;;2.93;1.03;;;11.80;1.00;;;;;;5002503;28;20178;-73
2023/12/11 07:27:39;;;;;;;2.20;1.10;;;11.90;1.00;;;;;;5000354;28;20430;-76
2023/12/11 07:30:06;;;;;;;7.77;1.60;;;11.90;1.00;;;;;;4991988;28;20449;-74
2023/12/11 07:32:31;;;;;;;2.70;1.43;;;11.90;1.00;;;;;;4991794;28;20520;-75
2023/12/11 07:34:57;;;;;;;2.57;1.20;;;11.80;1.00;;;;;;4989841;28;20952;-75
2023/12/11 07:37:22;;;;;;;1.97;1.13;;;11.90;1.00;;;;;;4992464;28;20181;-76
2023/12/11 07:39:48;;;;;;;2.13;1.00;;;11.90;1.00;;;;;;4992370;28;20241;-75
2023/12/11 07:42:14;;;;;;;2.40;1.20;;;11.80;1.00;;;;;;4997437;28;20273;-74
2023/12/11 07:44:39;;;;;;;2.43;1.10;;;11.80;1.00;;;;;;5002607;28;20190;-75
2023/12/11 07:47:05;;;;;;;2.87;0.90;;;11.80;1.00;;;;;;5000897;28;20195;-75
2023/12/11 07:49:30;;;;;;;3.60;1.20;;;11.80;1.00;;;;;;4991098;28;20210;-74
2023/12/11 07:51:56;;;;;;;1.60;1.00;;;11.70;1.00;;;;;;4998824;28;20199;-74
2023/12/11 07:54:21;;;;;;;2.40;1.23;;;11.70;1.00;;;;;;5005064;28;20553;-75
2023/12/11 07:56:47;;;;;;;2.80;1.00;;;11.70;1.00;;;;;;4994734;28;20680;-78
2023/12/11 07:59:12;;;;;;;2.40;1.20;;;11.70;1.00;;;;;;4991595;28;20242;-74
2023/12/11 08:01:38;;;;;;;1.97;1.17;;;11.60;1.00;;;;;;4998534;28;20186;-75
2023/12/11 08:04:04;;;;;;;3.00;1.63;;;11.70;1.00;;;;;;5000990;28;20187;-74
2023/12/11 08:06:29;;;;;;;2.60;1.17;;;11.70;1.00;;;;;;5006171;28;20425;-76
2023/12/11 08:08:55;;;;;;;1.53;0.90;;;11.80;1.00;;;;;;4992563;28;20697;-75
2023/12/11 08:11:25;;;;;;;2.43;1.10;;;11.70;1.00;;;;;;4991707;28;20213;-74
2023/12/11 08:13:50;;;;;;;1.20;0.80;;;11.80;1.00;;;;;;5000114;28;20661;-74
2023/12/11 08:16:16;;;;;;;5.70;1.20;;;11.70;1.00;;;;;;4996489;28;20487;-75
2023/12/11 08:18:43;;;;;;;1.53;0.90;;;11.80;1.00;;;;;;4997522;28;20191;-74
2023/12/11 08:21:08;;;;;;;2.07;1.20;;;11.80;1.00;;;;;;4991651;28;20207;-75
2023/12/11 08:23:34;;;;;;;8.10;1.40;;;11.90;1.00;;;;;;5017380;28;20458;-74
2023/12/11 08:26:00;;;;;;;1.30;1.10;;;11.90;1.00;;;;;;4991220;28;20201;-74
2023/12/11 08:28:25;;;;;;;2.33;1.10;;;11.90;1.00;;;;;;4991315;28;20195;-74
2023/12/11 08:30:51;;;;;;;5.43;1.30;;;11.90;1.00;;;;;;4991507;28;20559;-75
2023/12/11 08:33:16;;;;;;;1.47;1.30;;;11.90;1.00;;;;;;4997603;28;20209;-74
2023/12/11 08:35:42;;;;;;;3.10;1.30;;;12.00;1.00;;;;;;4997880;28;20252;-74
2023/12/11 08:38:07;;;;;;;1.67;1.20;;;12.00;1.00;;;;;;4989864;28;20669;-74
2023/12/11 08:40:33;;;;;;;1.73;1.17;;;12.00;1.00;;;;;;4990988;28;20425;-76
2023/12/11 08:42:59;;;;;;;1.30;0.90;;;12.00;1.00;;;;;;4999388;28;20580;-75
2023/12/11 08:45:24;;;;;;;2.27;1.23;;;12.10;1.00;;;;;;4999173;28;20193;-74
2023/12/11 08:47:50;;;;;;;5.80;1.70;;;12.30;1.00;;;;;;5001552;28;20716;-73
2023/12/11 08:50:16;;;;;;;6.50;1.50;;;12.90;1.00;;;;;;4991423;28;20207;-73
2023/12/11 08:52:43;;;;;;;3.27;1.80;;;13.40;1.00;;;;;;4996640;28;20276;-74
2023/12/11 08:55:08;;;;;;;3.50;1.60;;;13.60;1.00;;;;;;5007681;28;20436;-73
2023/12/11 08:57:34;;;;;;;3.40;1.40;;;13.90;1.00;;;;;;4999692;28;20435;-74
2023/12/11 09:00:00;;;;;;;1.70;1.10;;;13.90;1.00;;;;;;4991595;28;20551;-76
2023/12/11 09:02:25;;;;;;;3.27;1.10;;;13.90;1.00;;;;;;4995114;28;20439;-75
2023/12/11 09:04:51;;;;;;;2.83;1.20;;;13.70;1.00;;;;;;4994966;28;20241;-76
2023/12/11 09:07:16;;;;;;;3.47;1.30;;;13.40;1.00;;;;;;4996170;28;20191;-75
2023/12/11 09:09:42;;;;;;;4.10;1.40;;;13.20;1.00;;;;;;4996376;28;20211;-76
2023/12/11 09:12:08;;;;;;;2.90;1.10;;;13.00;1.00;;;;;;4998385;28;20688;-76
2023/12/11 09:14:33;;;;;;;5.33;1.10;;;13.00;1.00;;;;;;5001300;28;20190;-75
2023/12/11 09:16:59;;;;;;;1.40;1.00;;;12.90;1.00;;;;;;4989851;28;20191;-75
2023/12/11 09:19:25;;;;;;;5.63;1.57;;;12.90;1.00;;;;;;4989506;28;20255;-76
2023/12/11 09:21:51;;;;;;;3.47;1.50;;;12.90;1.00;;;;;;4999787;28;20456;-75
2023/12/11 09:24:16;;;;;;;2.27;1.33;;;12.80;1.00;;;;;;5002099;28;20245;-76
2023/12/11 09:26:42;;;;;;;5.43;1.17;;;12.80;1.00;;;;;;4994880;28;20257;-76
2023/12/11 09:29:07;;;;;;;2.80;1.20;;;12.70;1.00;;;;;;4989749;28;20179;-76
2023/12/11 09:31:33;;;;;;;1.33;1.10;;;12.80;1.00;;;;;;4991948;28;20215;-76
2023/12/11 09:33:58;;;;;;;2.07;1.27;;;12.70;1.00;;;;;;5006684;28;20209;-77
2023/12/11 09:36:24;;;;;;;5.90;1.30;;;12.80;1.00;;;;;;4995280;28;20195;-75
2023/12/11 09:38:49;;;;;;;2.80;1.20;;;12.80;1.00;;;;;;5003020;28;20183;-75
2023/12/11 09:41:15;;;;;;;6.80;1.20;;;12.90;1.00;;;;;;4998115;28;20238;-75
2023/12/11 09:43:40;;;;;;;2.80;1.30;;;12.90;1.00;;;;;;4990649;28;20694;-74
2023/12/11 09:46:11;;;;;;;2.23;1.30;;;12.80;1.00;;;;;;4991416;28;20184;-76
2023/12/11 09:48:36;;;;;;;3.67;1.33;;;12.80;1.00;;;;;;4996911;28;20187;-76
2023/12/11 09:51:02;;;;;;;6.00;1.90;;;12.70;1.00;;;;;;4989295;28;20438;-74
2023/12/11 09:53:30;;;;;;;2.90;1.40;;;12.70;1.00;;;;;;5004833;28;20205;-76
2023/12/11 09:55:57;;;;;;;3.00;1.10;;;12.70;1.00;;;;;;4990279;28;20798;-77
2023/12/11 09:58:22;;;;;;;4.13;1.73;;;12.70;1.00;;;;;;4988440;28;20437;-75
2023/12/11 10:00:48;;;;;;;3.90;1.30;;;12.80;1.00;;;;;;4992471;28;20457;-74
2023/12/11 10:03:15;;;;;;;4.03;1.70;;;12.80;1.00;;;;;;4988383;28;20606;-76
2023/12/11 10:05:41;;;;;;;1.90;1.30;;;12.90;1.00;;;;;;4990004;28;20190;-76
2023/12/11 10:08:06;;;;;;;4.50;1.63;;;13.10;1.00;;;;;;4989022;28;20419;-76
2023/12/11 10:10:33;;;;;;;8.07;1.53;;;13.60;1.00;;;;;;4993739;28;20603;-75
2023/12/11 10:13:00;;;;;;;5.97;1.80;;;13.80;1.00;;;;;;4989381;28;20253;-74
2023/12/11 10:15:33;;;;;;;5.27;1.57;;;13.80;1.00;;;;;;4993216;28;20430;-75
2023/12/11 10:18:05;;;;;;;2.90;1.47;;;14.00;1.00;;;;;;5003732;28;20430;-76
2023/12/11 10:20:32;;;;;;;4.60;1.50;;;14.00;1.00;;;;;;4992323;28;20528;-75
2023/12/11 10:22:57;;;;;;;3.20;1.70;;;13.90;1.00;;;;;;5001101;28;20429;-76
2023/12/11 10:25:27;;;;;;;3.30;1.40;;;13.90;1.00;;;;;;4991250;28;20438;-76
2023/12/11 10:28:04;;;;;;;6.90;1.80;;;13.80;1.00;;;;;;4986469;28;20187;-75
2023/12/11 10:30:29;;;;;;;5.73;1.83;;;14.00;1.00;;;;;;4989091;28;20449;-75
2023/12/11 10:33:00;;;;;;;5.00;1.47;;;14.30;1.00;;;;;;4992455;28;20473;-75
2023/12/11 10:35:25;;;;;;;8.10;1.67;;;14.70;1.00;;;;;;4995715;28;20183;-76
2023/12/11 10:37:58;;;;;;;6.73;1.73;;;14.90;1.00;;;;;;4989560;28;20422;-75
2023/12/11 10:40:38;;;;;;;5.80;1.60;;;14.90;1.00;;;;;;4999630;28;20213;-75
2023/12/11 10:43:04;;;;;;;7.27;1.90;;;14.80;1.00;;;;;;4999782;28;20426;-76
2023/12/11 10:45:31;;;;;;;7.20;1.83;;;15.10;1.00;;;;;;4997408;28;20425;-75
2023/12/11 10:47:58;;;;;;;6.30;1.77;;;15.00;1.00;;;;;;4993446;28;20187;-74
2023/12/11 10:50:24;;;;;;;11.63;2.13;;;14.60;1.00;;;;;;4994965;28;20446;-75
2023/12/11 10:52:50;;;;;;;10.07;2.50;;;14.30;1.00;;;;;;4998813;28;20469;-74
2023/12/11 10:55:16;;;;;;;5.23;1.80;;;14.00;1.00;;;;;;4994407;28;20453;-73
2023/12/11 10:57:43;;;;;;;7.97;1.70;;;13.90;1.00;;;;;;4996937;28;20461;-74
2023/12/11 11:00:13;;;;;;;5.80;1.90;;;14.00;1.00;;;;;;4993117;28;20199;-74
2023/12/11 11:02:43;;;;;;;7.93;2.10;;;13.90;1.00;;;;;;5006709;28;21021;-73
2023/12/11 11:05:09;;;;;;;7.63;1.83;;;13.90;1.00;;;;;;5008798;28;20927;-74
2023/12/11 11:07:38;;;;;;;8.30;2.13;;;14.20;1.00;;;;;;4999299;28;20541;-74
2023/12/11 11:10:13;;;;;;;4.60;1.60;;;14.60;1.00;;;;;;5002849;28;20473;-75
2023/12/11 11:12:53;;;;;;;5.10;1.43;;;14.60;1.00;;;;;;4998787;28;20464;-75
2023/12/11 11:15:23;;;;;;;9.37;1.70;;;14.50;1.00;;;;;;4998753;28;20924;-74
2023/12/11 11:18:05;;;;;;;4.30;1.53;;;14.30;1.00;;;;;;4994504;28;20426;-74
2023/12/11 11:20:36;;;;;;;4.87;1.90;;;14.20;1.00;;;;;;4994097;28;20463;-75
2023/12/11 11:23:17;;;;;;;5.90;1.70;;;14.10;1.00;;;;;;4997364;28;20508;-72
2023/12/11 11:25:51;;;;;;;4.63;2.20;;;14.10;1.00;;;;;;5010933;28;20864;-74
2023/12/11 11:28:40;;;;;;;8.27;1.87;;;14.00;1.00;;;;;;4993297;28;20480;-72
2023/12/11 11:31:10;;;;;;;7.00;2.40;;;14.00;1.00;;;;;;5000265;28;20453;-72
2023/12/11 11:33:50;;;;;;;6.60;1.87;;;14.00;1.00;;;;;;4991379;28;20452;-71
2023/12/11 11:36:21;;;;;;;7.27;2.30;;;13.90;1.00;;;;;;5000053;28;20935;-71
2023/12/11 11:38:57;;;;;;;6.37;1.80;;;;;;;;;;5004523;28;20437;-73
2023/12/11 11:41:28;;;;;;;6.83;2.20;;;13.80;1.00;;;;;;5002608;28;20508;-72
2023/12/11 11:44:04;;;;;;;4.67;1.93;;;13.90;1.00;;;;;;5001806;28;20434;-74
2023/12/11 11:46:48;;;;;;;13.23;2.07;;;13.90;1.00;;;;;;4992706;28;20524;-75
2023/12/11 11:49:34;;;;;;;9.43;1.80;;;14.00;1.00;;;;;;4991114;28;20438;-72
2023/12/11 11:52:06;;;;;;;6.20;1.97;;;14.00;1.00;;;;;;4992101;28;20470;-71
2023/12/11 11:54:35;;;;;;;11.63;3.10;;;14.00;1.00;;;;;;4992771;28;20426;-73
2023/12/11 11:57:01;;;;;;;8.73;2.50;;;13.90;1.00;;;;;;5016516;28;20438;-73
2023/12/11 11:59:26;;;;;;;12.37;2.20;;;14.00;1.00;;;;;;4992190;28;20549;-73
2023/12/11 12:01:56;;;;;;;5.43;2.10;;;14.00;1.00;;;;;;5008549;28;20273;-73
2023/12/11 12:04:29;;;;;;;8.93;1.83;;;14.00;1.00;;;;;;4993140;28;20191;-72
2023/12/11 12:07:02;;;;;;;11.90;2.60;;;14.00;1.00;;;;;;4991883;28;20995;-73
2023/12/11 12:09:29;;;;;;;10.10;1.97;;;14.10;1.00;;;;;;4992473;28;20981;-73
2023/12/11 12:11:54;;;;;;;5.20;2.00;;;14.10;1.00;;;;;;5007521;28;20466;-72
2023/12/11 12:14:21;;;;;;;9.23;1.90;;;14.10;1.00;;;;;;4998753;28;20485;-73
2023/12/11 12:16:47;;;;;;;10.40;1.90;;;16.10;1.00;;;;;;4990643;28;20183;-72
2023/12/11 12:19:15;;;;;;;8.67;2.33;;;14.00;1.00;;;;;;4990439;28;20443;-72
2023/12/11 12:21:51;;;;;;;7.67;2.13;;;14.20;1.00;;;;;;4995482;28;20427;-71
2023/12/11 12:24:18;;;;;;;8.47;2.30;;;14.00;1.00;;;;;;5003436;28;20819;-71
2023/12/11 12:26:46;;;;;;;3.30;1.30;;;14.00;1.00;;;;;;4998218;28;20504;-72
2023/12/11 12:29:13;;;;;;;6.63;1.80;;;13.90;1.00;;;;;;4990969;28;20445;-74
2023/12/11 12:31:39;;;;;;;12.63;2.10;;;13.90;1.00;;;;;;4993951;28;20461;-72
2023/12/11 12:34:06;;;;;;;5.73;2.00;;;13.90;1.00;;;;;;5008003;28;20424;-72
2023/12/11 12:36:32;;;;;;;14.67;2.30;;;13.90;1.00;;;;;;4994436;28;20882;-74
2023/12/11 12:38:58;;;;;;;11.57;2.70;;;;;;;;;;4991612;28;21127;-71
2023/12/11 12:41:24;;;;;;;5.77;1.73;;;14.10;1.00;;;;;;5004704;28;21015;-73
2023/12/11 12:43:50;;;;;;;11.33;1.93;;;14.10;1.00;;;;;;4982167;28;20589;-72
2023/12/11 12:46:15;;;;;;;7.83;2.30;;;14.10;1.00;;;;;;4997892;28;20191;-74
2023/12/11 12:48:42;;;;;;;6.80;1.50;;;14.10;1.00;;;;;;4989798;28;20191;-75
2023/12/11 12:51:11;;;;;;;6.53;1.53;;;14.00;1.00;;;;;;4987774;28;20202;-74
2023/12/11 12:53:51;;;;;;;6.03;1.70;;;13.90;1.00;;;;;;4983179;28;20535;-74
2023/12/11 12:56:18;;;;;;;8.50;1.60;;;13.90;1.00;;;;;;4989618;28;20477;-76